sensor_id;sensor_type;location;lat;lon;timestamp;P1;durP1;ratioP1;P2;durP2;ratioP2
24681;SDS011;12802;53.390;-2.328;2024-02-23T00:00:35;8.23;;;1.25;;
24681;SDS011;12802;53.390;-2.328;2024-02-23T00:03:01;6.80;;;1.20;;
24681;SDS011;12802;53.390;-2.328;2024-02-23T00:05:27;4.78;;;1.50;;
24681;SDS011;12802;53.390;-2.328;2024-02-23T00:07:53;9.80;;;1.48;;
24681;SDS011;12802;53.390;-2.328;2024-02-23T00:10:19;7.03;;;1.70;;
24681;SDS011;12802;53.390;-2.328;2024-02-23T00:12:45;9.63;;;1.50;;
24681;SDS011;12802;53.390;-2.328;2024-02-23T00:15:12;13.93;;;1.65;;
24681;SDS011;12802;53.390;-2.328;2024-02-23T00:17:39;5.35;;;1.60;;
24681;SDS011;12802;53.390;-2.328;2024-02-23T00:20:08;6.75;;;1.40;;
24681;SDS011;12802;53.390;-2.328;2024-02-23T00:22:40;11.60;;;1.85;;
24681;SDS011;12802;53.390;-2.328;2024-02-23T00:25:06;7.53;;;1.30;;
24681;SDS011;12802;53.390;-2.328;2024-02-23T00:27:33;5.10;;;1.15;;
24681;SDS011;12802;53.390;-2.328;2024-02-23T00:29:59;10.40;;;1.58;;
24681;SDS011;12802;53.390;-2.328;2024-02-23T00:32:25;7.18;;;1.15;;
24681;SDS011;12802;53.390;-2.328;2024-02-23T00:34:51;6.45;;;1.33;;
24681;SDS011;12802;53.390;-2.328;2024-02-23T00:37:17;5.50;;;1.20;;
24681;SDS011;12802;53.390;-2.328;2024-02-23T00:39:44;5.00;;;1.25;;
24681;SDS011;12802;53.390;-2.328;2024-02-23T00:42:10;7.72;;;1.10;;
24681;SDS011;12802;53.390;-2.328;2024-02-23T00:44:36;5.60;;;1.08;;
24681;SDS011;12802;53.390;-2.328;2024-02-23T00:47:02;2.22;;;0.77;;
24681;SDS011;12802;53.390;-2.328;2024-02-23T00:49:29;7.18;;;1.30;;
24681;SDS011;12802;53.390;-2.328;2024-02-23T00:51:55;5.97;;;1.00;;
24681;SDS011;12802;53.390;-2.328;2024-02-23T00:54:22;5.88;;;1.50;;
24681;SDS011;12802;53.390;-2.328;2024-02-23T00:56:48;4.53;;;0.80;;
24681;SDS011;12802;53.390;-2.328;2024-02-23T00:59:14;3.92;;;1.05;;
24681;SDS011;12802;53.390;-2.328;2024-02-23T01:01:40;7.25;;;1.13;;
24681;SDS011;12802;53.390;-2.328;2024-02-23T01:04:06;3.70;;;0.90;;
24681;SDS011;12802;53.390;-2.328;2024-02-23T01:06:32;6.32;;;1.30;;
24681;SDS011;12802;53.390;-2.328;2024-02-23T01:08:59;9.80;;;1.50;;
24681;SDS011;12802;53.390;-2.328;2024-02-23T01:11:25;10.25;;;1.58;;
24681;SDS011;12802;53.390;-2.328;2024-02-23T01:13:51;9.57;;;1.38;;
24681;SDS011;12802;53.390;-2.328;2024-02-23T01:16:17;8.45;;;1.30;;
24681;SDS011;12802;53.390;-2.328;2024-02-23T01:18:43;8.10;;;1.50;;
24681;SDS011;12802;53.390;-2.328;2024-02-23T01:21:09;6.20;;;1.10;;
24681;SDS011;12802;53.390;-2.328;2024-02-23T01:23:36;6.25;;;1.50;;
24681;SDS011;12802;53.390;-2.328;2024-02-23T01:26:02;4.93;;;1.35;;
24681;SDS011;12802;53.390;-2.328;2024-02-23T01:28:28;7.65;;;1.20;;
24681;SDS011;12802;53.390;-2.328;2024-02-23T01:30:54;6.72;;;1.02;;
24681;SDS011;12802;53.390;-2.328;2024-02-23T01:33:20;7.72;;;1.10;;
24681;SDS011;12802;53.390;-2.328;2024-02-23T01:35:47;8.00;;;1.40;;
24681;SDS011;12802;53.390;-2.328;2024-02-23T01:38:13;4.32;;;1.05;;
24681;SDS011;12802;53.390;-2.328;2024-02-23T01:40:46;7.30;;;0.98;;
24681;SDS011;12802;53.390;-2.328;2024-02-23T01:43:13;6.05;;;1.67;;
24681;SDS011;12802;53.390;-2.328;2024-02-23T01:45:39;7.28;;;1.35;;
24681;SDS011;12802;53.390;-2.328;2024-02-23T01:48:05;7.55;;;1.60;;
24681;SDS011;12802;53.390;-2.328;2024-02-23T01:50:32;7.20;;;1.52;;
24681;SDS011;12802;53.390;-2.328;2024-02-23T01:53:00;6.68;;;1.40;;
24681;SDS011;12802;53.390;-2.328;2024-02-23T01:55:26;7.47;;;1.02;;
24681;SDS011;12802;53.390;-2.328;2024-02-23T01:57:52;5.80;;;1.10;;
24681;SDS011;12802;53.390;-2.328;2024-02-23T02:00:19;8.45;;;1.10;;
24681;SDS011;12802;53.390;-2.328;2024-02-23T02:02:53;6.85;;;1.40;;
24681;SDS011;12802;53.390;-2.328;2024-02-23T02:05:21;7.80;;;0.93;;
24681;SDS011;12802;53.390;-2.328;2024-02-23T02:07:47;9.00;;;1.20;;
24681;SDS011;12802;53.390;-2.328;2024-02-23T02:10:18;9.27;;;1.30;;
24681;SDS011;12802;53.390;-2.328;2024-02-23T02:12:46;5.65;;;1.17;;
24681;SDS011;12802;53.390;-2.328;2024-02-23T02:15:12;10.57;;;2.15;;
24681;SDS011;12802;53.390;-2.328;2024-02-23T02:17:38;9.32;;;1.30;;
24681;SDS011;12802;53.390;-2.328;2024-02-23T02:20:05;7.30;;;1.15;;
24681;SDS011;12802;53.390;-2.328;2024-02-23T02:22:32;6.22;;;1.05;;
24681;SDS011;12802;53.390;-2.328;2024-02-23T02:24:59;7.85;;;1.30;;
24681;SDS011;12802;53.390;-2.328;2024-02-23T02:27:25;5.43;;;0.98;;
24681;SDS011;12802;53.390;-2.328;2024-02-23T02:29:51;6.75;;;1.73;;
24681;SDS011;12802;53.390;-2.328;2024-02-23T02:32:17;6.32;;;1.30;;
24681;SDS011;12802;53.390;-2.328;2024-02-23T02:34:44;8.00;;;1.75;;
24681;SDS011;12802;53.390;-2.328;2024-02-23T02:37:10;7.47;;;0.65;;
24681;SDS011;12802;53.390;-2.328;2024-02-23T02:39:36;4.57;;;1.00;;
24681;SDS011;12802;53.390;-2.328;2024-02-23T02:42:02;5.13;;;0.90;;
24681;SDS011;12802;53.390;-2.328;2024-02-23T02:44:28;7.85;;;0.95;;
24681;SDS011;12802;53.390;-2.328;2024-02-23T02:46:56;4.70;;;1.08;;
24681;SDS011;12802;53.390;-2.328;2024-02-23T02:49:22;10.00;;;1.27;;
24681;SDS011;12802;53.390;-2.328;2024-02-23T02:51:49;6.35;;;1.23;;
24681;SDS011;12802;53.390;-2.328;2024-02-23T02:54:16;7.25;;;1.00;;
24681;SDS011;12802;53.390;-2.328;2024-02-23T02:56:42;7.70;;;1.15;;
24681;SDS011;12802;53.390;-2.328;2024-02-23T02:59:09;7.63;;;1.15;;
24681;SDS011;12802;53.390;-2.328;2024-02-23T03:01:35;5.25;;;1.00;;
24681;SDS011;12802;53.390;-2.328;2024-02-23T03:04:01;6.05;;;1.00;;
24681;SDS011;12802;53.390;-2.328;2024-02-23T03:06:27;9.45;;;1.38;;
24681;SDS011;12802;53.390;-2.328;2024-02-23T03:08:54;3.65;;;0.95;;
24681;SDS011;12802;53.390;-2.328;2024-02-23T03:11:20;9.27;;;1.00;;
24681;SDS011;12802;53.390;-2.328;2024-02-23T03:13:46;7.55;;;1.13;;
24681;SDS011;12802;53.390;-2.328;2024-02-23T03:16:16;4.28;;;0.80;;
24681;SDS011;12802;53.390;-2.328;2024-02-23T03:18:42;7.32;;;1.10;;
24681;SDS011;12802;53.390;-2.328;2024-02-23T03:21:09;6.90;;;1.30;;
24681;SDS011;12802;53.390;-2.328;2024-02-23T03:23:35;8.55;;;1.33;;
24681;SDS011;12802;53.390;-2.328;2024-02-23T03:26:01;6.57;;;1.20;;
24681;SDS011;12802;53.390;-2.328;2024-02-23T03:28:28;8.77;;;1.10;;
24681;SDS011;12802;53.390;-2.328;2024-02-23T03:30:54;9.77;;;1.55;;
24681;SDS011;12802;53.390;-2.328;2024-02-23T03:33:20;7.45;;;1.00;;
24681;SDS011;12802;53.390;-2.328;2024-02-23T03:35:46;8.20;;;1.00;;
24681;SDS011;12802;53.390;-2.328;2024-02-23T03:38:12;7.60;;;0.80;;
24681;SDS011;12802;53.390;-2.328;2024-02-23T03:40:38;4.22;;;0.80;;
24681;SDS011;12802;53.390;-2.328;2024-02-23T03:43:05;3.75;;;1.08;;
24681;SDS011;12802;53.390;-2.328;2024-02-23T03:45:31;7.13;;;0.90;;
24681;SDS011;12802;53.390;-2.328;2024-02-23T03:47:57;4.53;;;0.68;;
24681;SDS011;12802;53.390;-2.328;2024-02-23T03:50:24;6.25;;;1.00;;
24681;SDS011;12802;53.390;-2.328;2024-02-23T03:52:50;7.88;;;0.80;;
24681;SDS011;12802;53.390;-2.328;2024-02-23T03:55:16;4.07;;;0.75;;
24681;SDS011;12802;53.390;-2.328;2024-02-23T03:57:42;3.67;;;0.98;;
24681;SDS011;12802;53.390;-2.328;2024-02-23T04:00:09;8.88;;;1.08;;
24681;SDS011;12802;53.390;-2.328;2024-02-23T04:02:39;5.50;;;0.90;;
24681;SDS011;12802;53.390;-2.328;2024-02-23T04:05:06;2.78;;;0.60;;
24681;SDS011;12802;53.390;-2.328;2024-02-23T04:07:32;4.38;;;0.82;;
24681;SDS011;12802;53.390;-2.328;2024-02-23T04:09:58;4.75;;;1.00;;
24681;SDS011;12802;53.390;-2.328;2024-02-23T04:12:24;7.68;;;0.90;;
24681;SDS011;12802;53.390;-2.328;2024-02-23T04:14:50;6.72;;;1.10;;
24681;SDS011;12802;53.390;-2.328;2024-02-23T04:17:17;9.85;;;1.27;;
24681;SDS011;12802;53.390;-2.328;2024-02-23T04:19:44;6.75;;;0.95;;
24681;SDS011;12802;53.390;-2.328;2024-02-23T04:22:10;3.17;;;0.70;;
24681;SDS011;12802;53.390;-2.328;2024-02-23T04:24:37;4.13;;;0.65;;
24681;SDS011;12802;53.390;-2.328;2024-02-23T04:27:04;6.05;;;0.80;;
24681;SDS011;12802;53.390;-2.328;2024-02-23T04:29:31;1.65;;;0.57;;
24681;SDS011;12802;53.390;-2.328;2024-02-23T04:31:57;3.88;;;1.00;;
24681;SDS011;12802;53.390;-2.328;2024-02-23T04:34:23;3.08;;;1.00;;
24681;SDS011;12802;53.390;-2.328;2024-02-23T04:36:50;2.80;;;0.93;;
24681;SDS011;12802;53.390;-2.328;2024-02-23T04:39:16;6.18;;;0.98;;
24681;SDS011;12802;53.390;-2.328;2024-02-23T04:41:42;4.50;;;0.80;;
24681;SDS011;12802;53.390;-2.328;2024-02-23T04:44:08;4.85;;;1.10;;
24681;SDS011;12802;53.390;-2.328;2024-02-23T04:46:34;4.50;;;0.70;;
24681;SDS011;12802;53.390;-2.328;2024-02-23T04:49:01;4.97;;;1.13;;
24681;SDS011;12802;53.390;-2.328;2024-02-23T04:51:27;4.38;;;0.80;;
24681;SDS011;12802;53.390;-2.328;2024-02-23T04:53:54;3.30;;;0.60;;
24681;SDS011;12802;53.390;-2.328;2024-02-23T04:56:20;3.72;;;0.90;;
24681;SDS011;12802;53.390;-2.328;2024-02-23T04:58:46;6.80;;;1.13;;
24681;SDS011;12802;53.390;-2.328;2024-02-23T05:01:12;5.13;;;0.80;;
24681;SDS011;12802;53.390;-2.328;2024-02-23T05:03:39;4.10;;;0.80;;
24681;SDS011;12802;53.390;-2.328;2024-02-23T05:06:05;6.07;;;0.80;;
24681;SDS011;12802;53.390;-2.328;2024-02-23T05:08:31;4.40;;;1.00;;
24681;SDS011;12802;53.390;-2.328;2024-02-23T05:10:57;3.38;;;0.80;;
24681;SDS011;12802;53.390;-2.328;2024-02-23T05:13:24;7.95;;;1.17;;
24681;SDS011;12802;53.390;-2.328;2024-02-23T05:15:50;4.90;;;1.00;;
24681;SDS011;12802;53.390;-2.328;2024-02-23T05:18:16;4.20;;;1.15;;
24681;SDS011;12802;53.390;-2.328;2024-02-23T05:20:42;5.20;;;0.88;;
24681;SDS011;12802;53.390;-2.328;2024-02-23T05:23:08;1.92;;;0.77;;
24681;SDS011;12802;53.390;-2.328;2024-02-23T05:25:34;5.53;;;0.98;;
24681;SDS011;12802;53.390;-2.328;2024-02-23T05:28:01;2.80;;;0.98;;
24681;SDS011;12802;53.390;-2.328;2024-02-23T05:30:27;5.38;;;1.05;;
24681;SDS011;12802;53.390;-2.328;2024-02-23T05:32:56;2.58;;;0.95;;
24681;SDS011;12802;53.390;-2.328;2024-02-23T05:35:23;2.20;;;0.77;;
24681;SDS011;12802;53.390;-2.328;2024-02-23T05:37:50;3.45;;;0.95;;
24681;SDS011;12802;53.390;-2.328;2024-02-23T05:40:16;4.03;;;1.10;;
24681;SDS011;12802;53.390;-2.328;2024-02-23T05:42:42;4.68;;;0.80;;
24681;SDS011;12802;53.390;-2.328;2024-02-23T05:45:08;4.18;;;1.08;;
24681;SDS011;12802;53.390;-2.328;2024-02-23T05:47:35;5.55;;;1.10;;
24681;SDS011;12802;53.390;-2.328;2024-02-23T05:50:02;3.50;;;0.65;;
24681;SDS011;12802;53.390;-2.328;2024-02-23T05:52:31;4.18;;;0.95;;
24681;SDS011;12802;53.390;-2.328;2024-02-23T05:54:57;7.53;;;1.15;;
24681;SDS011;12802;53.390;-2.328;2024-02-23T05:57:28;3.83;;;0.90;;
24681;SDS011;12802;53.390;-2.328;2024-02-23T05:59:54;5.30;;;1.25;;
24681;SDS011;12802;53.390;-2.328;2024-02-23T06:02:21;4.38;;;0.90;;
24681;SDS011;12802;53.390;-2.328;2024-02-23T06:04:47;6.03;;;1.15;;
24681;SDS011;12802;53.390;-2.328;2024-02-23T06:07:13;3.83;;;0.90;;
24681;SDS011;12802;53.390;-2.328;2024-02-23T06:09:43;3.80;;;1.42;;
24681;SDS011;12802;53.390;-2.328;2024-02-23T06:12:09;7.30;;;0.90;;
24681;SDS011;12802;53.390;-2.328;2024-02-23T06:14:35;5.32;;;1.13;;
24681;SDS011;12802;53.390;-2.328;2024-02-23T06:17:02;3.10;;;0.70;;
24681;SDS011;12802;53.390;-2.328;2024-02-23T06:19:29;5.53;;;0.90;;
24681;SDS011;12802;53.390;-2.328;2024-02-23T06:21:55;4.90;;;1.30;;
24681;SDS011;12802;53.390;-2.328;2024-02-23T06:24:21;5.88;;;1.10;;
24681;SDS011;12802;53.390;-2.328;2024-02-23T06:26:47;3.38;;;1.08;;
24681;SDS011;12802;53.390;-2.328;2024-02-23T06:29:14;3.70;;;0.90;;
24681;SDS011;12802;53.390;-2.328;2024-02-23T06:31:40;4.25;;;1.02;;
24681;SDS011;12802;53.390;-2.328;2024-02-23T06:34:07;8.32;;;1.20;;
24681;SDS011;12802;53.390;-2.328;2024-02-23T06:36:33;3.65;;;0.60;;
24681;SDS011;12802;53.390;-2.328;2024-02-23T06:38:59;5.75;;;0.85;;
24681;SDS011;12802;53.390;-2.328;2024-02-23T06:41:26;4.80;;;1.00;;
24681;SDS011;12802;53.390;-2.328;2024-02-23T06:43:54;4.80;;;1.10;;
24681;SDS011;12802;53.390;-2.328;2024-02-23T06:46:20;5.97;;;1.00;;
24681;SDS011;12802;53.390;-2.328;2024-02-23T06:48:46;4.35;;;1.10;;
24681;SDS011;12802;53.390;-2.328;2024-02-23T06:51:12;4.05;;;0.90;;
24681;SDS011;12802;53.390;-2.328;2024-02-23T06:53:39;6.07;;;0.93;;
24681;SDS011;12802;53.390;-2.328;2024-02-23T06:56:05;4.53;;;0.90;;
24681;SDS011;12802;53.390;-2.328;2024-02-23T06:58:31;4.40;;;0.90;;
24681;SDS011;12802;53.390;-2.328;2024-02-23T07:00:57;3.88;;;1.20;;
24681;SDS011;12802;53.390;-2.328;2024-02-23T07:03:25;3.60;;;0.90;;
24681;SDS011;12802;53.390;-2.328;2024-02-23T07:05:51;6.80;;;1.42;;
24681;SDS011;12802;53.390;-2.328;2024-02-23T07:08:18;11.80;;;1.58;;
24681;SDS011;12802;53.390;-2.328;2024-02-23T07:10:44;4.45;;;1.27;;
24681;SDS011;12802;53.390;-2.328;2024-02-23T07:13:10;5.25;;;1.20;;
24681;SDS011;12802;53.390;-2.328;2024-02-23T07:15:36;7.10;;;1.73;;
24681;SDS011;12802;53.390;-2.328;2024-02-23T07:18:02;8.48;;;1.40;;
24681;SDS011;12802;53.390;-2.328;2024-02-23T07:20:29;4.65;;;1.42;;
24681;SDS011;12802;53.390;-2.328;2024-02-23T07:22:55;6.00;;;1.45;;
24681;SDS011;12802;53.390;-2.328;2024-02-23T07:25:21;5.20;;;1.25;;
24681;SDS011;12802;53.390;-2.328;2024-02-23T07:27:47;6.60;;;1.27;;
24681;SDS011;12802;53.390;-2.328;2024-02-23T07:30:17;3.83;;;1.15;;
24681;SDS011;12802;53.390;-2.328;2024-02-23T07:32:43;7.18;;;1.80;;
24681;SDS011;12802;53.390;-2.328;2024-02-23T07:35:10;4.10;;;1.58;;
24681;SDS011;12802;53.390;-2.328;2024-02-23T07:37:36;8.55;;;1.55;;
24681;SDS011;12802;53.390;-2.328;2024-02-23T07:40:03;5.65;;;1.65;;
24681;SDS011;12802;53.390;-2.328;2024-02-23T07:42:29;7.38;;;1.65;;
24681;SDS011;12802;53.390;-2.328;2024-02-23T07:44:56;4.72;;;1.58;;
24681;SDS011;12802;53.390;-2.328;2024-02-23T07:47:22;7.53;;;1.80;;
24681;SDS011;12802;53.390;-2.328;2024-02-23T07:49:53;4.93;;;1.35;;
24681;SDS011;12802;53.390;-2.328;2024-02-23T07:52:20;6.60;;;1.52;;
24681;SDS011;12802;53.390;-2.328;2024-02-23T07:54:49;3.67;;;1.60;;
24681;SDS011;12802;53.390;-2.328;2024-02-23T07:57:17;7.43;;;1.70;;
24681;SDS011;12802;53.390;-2.328;2024-02-23T07:59:44;4.72;;;1.63;;
24681;SDS011;12802;53.390;-2.328;2024-02-23T08:02:10;5.18;;;1.10;;
24681;SDS011;12802;53.390;-2.328;2024-02-23T08:04:36;5.03;;;1.10;;
24681;SDS011;12802;53.390;-2.328;2024-02-23T08:07:03;6.38;;;1.60;;
24681;SDS011;12802;53.390;-2.328;2024-02-23T08:09:29;8.63;;;1.85;;
24681;SDS011;12802;53.390;-2.328;2024-02-23T08:11:55;4.78;;;1.27;;
24681;SDS011;12802;53.390;-2.328;2024-02-23T08:14:22;8.32;;;1.90;;
24681;SDS011;12802;53.390;-2.328;2024-02-23T08:16:48;8.13;;;1.50;;
24681;SDS011;12802;53.390;-2.328;2024-02-23T08:19:15;7.57;;;1.70;;
24681;SDS011;12802;53.390;-2.328;2024-02-23T08:21:41;4.85;;;1.67;;
24681;SDS011;12802;53.390;-2.328;2024-02-23T08:24:08;6.53;;;1.40;;
24681;SDS011;12802;53.390;-2.328;2024-02-23T08:26:35;9.90;;;1.33;;
24681;SDS011;12802;53.390;-2.328;2024-02-23T08:29:03;8.45;;;1.58;;
24681;SDS011;12802;53.390;-2.328;2024-02-23T08:31:30;7.53;;;1.40;;
24681;SDS011;12802;53.390;-2.328;2024-02-23T08:33:56;6.53;;;1.50;;
24681;SDS011;12802;53.390;-2.328;2024-02-23T08:36:22;7.47;;;1.10;;
24681;SDS011;12802;53.390;-2.328;2024-02-23T08:38:48;4.30;;;0.90;;
24681;SDS011;12802;53.390;-2.328;2024-02-23T08:41:15;7.30;;;1.60;;
24681;SDS011;12802;53.390;-2.328;2024-02-23T08:43:41;8.23;;;1.67;;
24681;SDS011;12802;53.390;-2.328;2024-02-23T08:46:07;4.43;;;1.85;;
24681;SDS011;12802;53.390;-2.328;2024-02-23T08:48:33;6.82;;;1.13;;
24681;SDS011;12802;53.390;-2.328;2024-02-23T08:50:59;5.63;;;1.40;;
24681;SDS011;12802;53.390;-2.328;2024-02-23T08:53:26;10.98;;;1.23;;
24681;SDS011;12802;53.390;-2.328;2024-02-23T08:55:52;3.70;;;0.88;;
24681;SDS011;12802;53.390;-2.328;2024-02-23T08:58:18;6.38;;;1.00;;
24681;SDS011;12802;53.390;-2.328;2024-02-23T09:00:44;7.40;;;1.90;;
24681;SDS011;12802;53.390;-2.328;2024-02-23T09:03:10;6.47;;;1.60;;
24681;SDS011;12802;53.390;-2.328;2024-02-23T09:05:37;4.45;;;1.30;;
24681;SDS011;12802;53.390;-2.328;2024-02-23T09:08:03;6.43;;;0.98;;
24681;SDS011;12802;53.390;-2.328;2024-02-23T09:10:30;6.45;;;0.95;;
24681;SDS011;12802;53.390;-2.328;2024-02-23T09:12:56;6.22;;;1.42;;
24681;SDS011;12802;53.390;-2.328;2024-02-23T09:15:22;6.78;;;1.33;;
24681;SDS011;12802;53.390;-2.328;2024-02-23T09:17:48;4.15;;;1.42;;
24681;SDS011;12802;53.390;-2.328;2024-02-23T09:20:15;4.90;;;1.42;;
24681;SDS011;12802;53.390;-2.328;2024-02-23T09:22:41;6.07;;;1.42;;
24681;SDS011;12802;53.390;-2.328;2024-02-23T09:25:07;5.90;;;1.20;;
24681;SDS011;12802;53.390;-2.328;2024-02-23T09:27:34;7.60;;;1.42;;
24681;SDS011;12802;53.390;-2.328;2024-02-23T09:30:04;7.57;;;1.48;;
24681;SDS011;12802;53.390;-2.328;2024-02-23T09:32:31;8.27;;;1.60;;
24681;SDS011;12802;53.390;-2.328;2024-02-23T09:34:57;11.05;;;1.77;;
24681;SDS011;12802;53.390;-2.328;2024-02-23T09:37:23;4.50;;;1.10;;
24681;SDS011;12802;53.390;-2.328;2024-02-23T09:39:50;8.13;;;1.73;;
24681;SDS011;12802;53.390;-2.328;2024-02-23T09:42:16;8.48;;;1.27;;
24681;SDS011;12802;53.390;-2.328;2024-02-23T09:44:43;4.75;;;1.10;;
24681;SDS011;12802;53.390;-2.328;2024-02-23T09:47:11;7.88;;;1.75;;
24681;SDS011;12802;53.390;-2.328;2024-02-23T09:49:38;8.43;;;1.00;;
24681;SDS011;12802;53.390;-2.328;2024-02-23T09:52:07;7.72;;;1.58;;
24681;SDS011;12802;53.390;-2.328;2024-02-23T09:54:37;7.07;;;1.60;;
24681;SDS011;12802;53.390;-2.328;2024-02-23T09:57:06;9.82;;;2.00;;
24681;SDS011;12802;53.390;-2.328;2024-02-23T09:59:33;11.23;;;1.83;;
24681;SDS011;12802;53.390;-2.328;2024-02-23T10:01:59;7.78;;;1.50;;
24681;SDS011;12802;53.390;-2.328;2024-02-23T10:04:26;9.90;;;1.75;;
24681;SDS011;12802;53.390;-2.328;2024-02-23T10:06:56;10.82;;;2.00;;
24681;SDS011;12802;53.390;-2.328;2024-02-23T10:09:22;7.45;;;1.70;;
24681;SDS011;12802;53.390;-2.328;2024-02-23T10:11:52;6.47;;;1.67;;
24681;SDS011;12802;53.390;-2.328;2024-02-23T10:14:18;8.65;;;1.23;;
24681;SDS011;12802;53.390;-2.328;2024-02-23T10:16:45;7.82;;;1.50;;
24681;SDS011;12802;53.390;-2.328;2024-02-23T10:19:11;6.05;;;1.15;;
24681;SDS011;12802;53.390;-2.328;2024-02-23T10:21:37;6.78;;;0.60;;
24681;SDS011;12802;53.390;-2.328;2024-02-23T10:24:04;3.90;;;0.73;;
24681;SDS011;12802;53.390;-2.328;2024-02-23T10:26:31;3.75;;;0.80;;
24681;SDS011;12802;53.390;-2.328;2024-02-23T10:28:57;5.07;;;0.90;;
24681;SDS011;12802;53.390;-2.328;2024-02-23T10:31:24;10.95;;;1.20;;
24681;SDS011;12802;53.390;-2.328;2024-02-23T10:33:50;5.60;;;0.68;;
24681;SDS011;12802;53.390;-2.328;2024-02-23T10:36:18;3.28;;;0.65;;
24681;SDS011;12802;53.390;-2.328;2024-02-23T10:38:45;10.85;;;1.15;;
24681;SDS011;12802;53.390;-2.328;2024-02-23T10:41:15;4.25;;;1.00;;
24681;SDS011;12802;53.390;-2.328;2024-02-23T10:43:47;5.57;;;1.27;;
24681;SDS011;12802;53.390;-2.328;2024-02-23T10:46:13;4.68;;;1.38;;
24681;SDS011;12802;53.390;-2.328;2024-02-23T10:48:44;5.53;;;1.30;;
24681;SDS011;12802;53.390;-2.328;2024-02-23T10:51:10;9.55;;;1.70;;
24681;SDS011;12802;53.390;-2.328;2024-02-23T10:53:39;3.80;;;1.67;;
24681;SDS011;12802;53.390;-2.328;2024-02-23T10:56:05;9.32;;;1.65;;
24681;SDS011;12802;53.390;-2.328;2024-02-23T10:58:32;5.68;;;1.65;;
24681;SDS011;12802;53.390;-2.328;2024-02-23T11:00:59;8.52;;;2.10;;
24681;SDS011;12802;53.390;-2.328;2024-02-23T11:03:27;6.78;;;2.13;;
24681;SDS011;12802;53.390;-2.328;2024-02-23T11:05:53;7.05;;;1.92;;
24681;SDS011;12802;53.390;-2.328;2024-02-23T11:08:20;5.80;;;2.10;;
24681;SDS011;12802;53.390;-2.328;2024-02-23T11:10:49;8.07;;;2.25;;
24681;SDS011;12802;53.390;-2.328;2024-02-23T11:13:29;8.45;;;1.40;;
24681;SDS011;12802;53.390;-2.328;2024-02-23T11:16:01;8.05;;;1.77;;
24681;SDS011;12802;53.390;-2.328;2024-02-23T11:18:27;11.00;;;1.92;;
24681;SDS011;12802;53.390;-2.328;2024-02-23T11:20:59;14.20;;;2.15;;
24681;SDS011;12802;53.390;-2.328;2024-02-23T11:23:26;7.57;;;1.98;;
24681;SDS011;12802;53.390;-2.328;2024-02-23T11:26:25;6.05;;;2.08;;
24681;SDS011;12802;53.390;-2.328;2024-02-23T11:28:48;6.53;;;1.55;;
24681;SDS011;12802;53.390;-2.328;2024-02-23T11:31:15;13.07;;;2.00;;
24681;SDS011;12802;53.390;-2.328;2024-02-23T11:33:49;6.22;;;1.55;;
24681;SDS011;12802;53.390;-2.328;2024-02-23T11:36:27;6.40;;;1.30;;
24681;SDS011;12802;53.390;-2.328;2024-02-23T11:38:53;5.68;;;1.17;;
24681;SDS011;12802;53.390;-2.328;2024-02-23T11:41:21;4.07;;;1.08;;
24681;SDS011;12802;53.390;-2.328;2024-02-23T11:43:49;5.43;;;1.00;;
24681;SDS011;12802;53.390;-2.328;2024-02-23T11:46:18;4.82;;;0.90;;
24681;SDS011;12802;53.390;-2.328;2024-02-23T11:51:15;8.73;;;1.33;;
24681;SDS011;12802;53.390;-2.328;2024-02-23T11:53:41;6.55;;;1.00;;
24681;SDS011;12802;53.390;-2.328;2024-02-23T11:56:07;5.72;;;1.05;;
24681;SDS011;12802;53.390;-2.328;2024-02-23T11:58:33;5.38;;;1.00;;
24681;SDS011;12802;53.390;-2.328;2024-02-23T12:01:00;5.75;;;0.98;;
24681;SDS011;12802;53.390;-2.328;2024-02-23T12:03:31;6.97;;;1.00;;
24681;SDS011;12802;53.390;-2.328;2024-02-23T12:05:57;7.18;;;1.20;;
24681;SDS011;12802;53.390;-2.328;2024-02-23T12:08:26;4.03;;;1.35;;
24681;SDS011;12802;53.390;-2.328;2024-02-23T12:13:19;6.72;;;0.82;;
24681;SDS011;12802;53.390;-2.328;2024-02-23T12:15:45;3.30;;;0.77;;
24681;SDS011;12802;53.390;-2.328;2024-02-23T12:18:12;4.03;;;0.70;;
24681;SDS011;12802;53.390;-2.328;2024-02-23T12:20:38;5.57;;;0.80;;
24681;SDS011;12802;53.390;-2.328;2024-02-23T12:23:04;4.05;;;0.90;;
24681;SDS011;12802;53.390;-2.328;2024-02-23T12:25:30;4.63;;;0.80;;
24681;SDS011;12802;53.390;-2.328;2024-02-23T12:27:56;3.38;;;1.02;;
24681;SDS011;12802;53.390;-2.328;2024-02-23T12:30:23;7.22;;;1.83;;
24681;SDS011;12802;53.390;-2.328;2024-02-23T12:32:51;7.10;;;1.05;;
24681;SDS011;12802;53.390;-2.328;2024-02-23T12:35:18;6.10;;;1.70;;
24681;SDS011;12802;53.390;-2.328;2024-02-23T12:37:44;6.70;;;1.23;;
24681;SDS011;12802;53.390;-2.328;2024-02-23T12:40:10;7.93;;;1.25;;
24681;SDS011;12802;53.390;-2.328;2024-02-23T12:42:37;8.63;;;1.27;;
24681;SDS011;12802;53.390;-2.328;2024-02-23T12:45:03;7.45;;;1.58;;
24681;SDS011;12802;53.390;-2.328;2024-02-23T12:47:29;5.40;;;1.35;;
24681;SDS011;12802;53.390;-2.328;2024-02-23T12:49:55;7.47;;;1.55;;
24681;SDS011;12802;53.390;-2.328;2024-02-23T12:52:22;6.30;;;1.85;;
24681;SDS011;12802;53.390;-2.328;2024-02-23T12:54:48;9.98;;;2.28;;
24681;SDS011;12802;53.390;-2.328;2024-02-23T12:57:14;6.97;;;1.65;;
24681;SDS011;12802;53.390;-2.328;2024-02-23T12:59:40;6.80;;;1.85;;
24681;SDS011;12802;53.390;-2.328;2024-02-23T13:02:06;5.13;;;1.10;;
24681;SDS011;12802;53.390;-2.328;2024-02-23T13:04:33;6.32;;;1.08;;
24681;SDS011;12802;53.390;-2.328;2024-02-23T13:07:00;5.22;;;1.50;;
24681;SDS011;12802;53.390;-2.328;2024-02-23T13:09:27;5.43;;;1.48;;
24681;SDS011;12802;53.390;-2.328;2024-02-23T13:11:53;9.07;;;1.38;;
24681;SDS011;12802;53.390;-2.328;2024-02-23T13:14:20;4.28;;;1.05;;
24681;SDS011;12802;53.390;-2.328;2024-02-23T13:16:46;7.18;;;1.00;;
24681;SDS011;12802;53.390;-2.328;2024-02-23T13:19:12;4.70;;;1.10;;
24681;SDS011;12802;53.390;-2.328;2024-02-23T13:21:38;4.07;;;0.98;;
24681;SDS011;12802;53.390;-2.328;2024-02-23T13:24:05;8.27;;;0.90;;
24681;SDS011;12802;53.390;-2.328;2024-02-23T13:26:31;6.88;;;1.00;;
24681;SDS011;12802;53.390;-2.328;2024-02-23T13:28:58;7.45;;;1.10;;
24681;SDS011;12802;53.390;-2.328;2024-02-23T13:31:24;2.28;;;0.63;;
24681;SDS011;12802;53.390;-2.328;2024-02-23T13:33:50;2.17;;;0.57;;
24681;SDS011;12802;53.390;-2.328;2024-02-23T13:36:16;4.13;;;0.70;;
24681;SDS011;12802;53.390;-2.328;2024-02-23T13:38:42;6.03;;;0.88;;
24681;SDS011;12802;53.390;-2.328;2024-02-23T13:41:08;5.93;;;0.60;;
24681;SDS011;12802;53.390;-2.328;2024-02-23T13:43:34;3.63;;;0.60;;
24681;SDS011;12802;53.390;-2.328;2024-02-23T13:46:01;4.90;;;0.90;;
24681;SDS011;12802;53.390;-2.328;2024-02-23T13:48:29;3.97;;;0.68;;
24681;SDS011;12802;53.390;-2.328;2024-02-23T13:50:55;3.22;;;0.50;;
24681;SDS011;12802;53.390;-2.328;2024-02-23T13:53:22;3.38;;;0.75;;
24681;SDS011;12802;53.390;-2.328;2024-02-23T13:55:48;3.50;;;0.40;;
24681;SDS011;12802;53.390;-2.328;2024-02-23T13:58:15;4.40;;;0.70;;
24681;SDS011;12802;53.390;-2.328;2024-02-23T14:00:42;2.75;;;0.50;;
24681;SDS011;12802;53.390;-2.328;2024-02-23T14:03:08;3.85;;;0.40;;
24681;SDS011;12802;53.390;-2.328;2024-02-23T14:05:36;4.60;;;0.90;;
24681;SDS011;12802;53.390;-2.328;2024-02-23T14:08:03;5.00;;;0.63;;
24681;SDS011;12802;53.390;-2.328;2024-02-23T14:10:29;7.65;;;0.73;;
24681;SDS011;12802;53.390;-2.328;2024-02-23T14:12:55;3.55;;;0.50;;
24681;SDS011;12802;53.390;-2.328;2024-02-23T14:15:21;4.55;;;1.02;;
24681;SDS011;12802;53.390;-2.328;2024-02-23T14:17:47;4.85;;;0.70;;
24681;SDS011;12802;53.390;-2.328;2024-02-23T14:20:14;4.88;;;0.98;;
24681;SDS011;12802;53.390;-2.328;2024-02-23T14:22:41;7.40;;;1.35;;
24681;SDS011;12802;53.390;-2.328;2024-02-23T14:25:07;6.65;;;1.55;;
24681;SDS011;12802;53.390;-2.328;2024-02-23T14:27:33;8.95;;;1.27;;
24681;SDS011;12802;53.390;-2.328;2024-02-23T14:29:59;8.05;;;1.40;;
24681;SDS011;12802;53.390;-2.328;2024-02-23T14:32:25;8.23;;;1.15;;
24681;SDS011;12802;53.390;-2.328;2024-02-23T14:34:52;5.60;;;1.13;;